sensor_id;sensor_type;location;lat;lon;timestamp;P1;durP1;ratioP1;P2;durP2;ratioP2
18188;SDS011;9219;50.396;8.546;2023-03-23T00:01:06;2.63;;;1.10;;
18188;SDS011;9219;50.396;8.546;2023-03-23T00:08:44;1.67;;;0.87;;
18188;SDS011;9219;50.396;8.546;2023-03-23T00:11:12;5.50;;;1.00;;
18188;SDS011;9219;50.396;8.546;2023-03-23T00:13:40;2.10;;;0.87;;
18188;SDS011;9219;50.396;8.546;2023-03-23T00:16:08;2.33;;;1.10;;
18188;SDS011;9219;50.396;8.546;2023-03-23T00:18:43;2.40;;;1.10;;
18188;SDS011;9219;50.396;8.546;2023-03-23T00:21:13;2.73;;;0.83;;
18188;SDS011;9219;50.396;8.546;2023-03-23T00:23:39;2.80;;;1.13;;
18188;SDS011;9219;50.396;8.546;2023-03-23T00:31:13;1.70;;;1.00;;
18188;SDS011;9219;50.396;8.546;2023-03-23T00:33:40;1.23;;;1.10;;
18188;SDS011;9219;50.396;8.546;2023-03-23T00:36:07;1.30;;;0.80;;
18188;SDS011;9219;50.396;8.546;2023-03-23T00:38:35;1.77;;;1.30;;
18188;SDS011;9219;50.396;8.546;2023-03-23T00:41:07;2.00;;;0.97;;
18188;SDS011;9219;50.396;8.546;2023-03-23T00:43:36;2.33;;;1.07;;
18188;SDS011;9219;50.396;8.546;2023-03-23T00:46:04;1.50;;;1.13;;
18188;SDS011;9219;50.396;8.546;2023-03-23T00:53:28;1.73;;;0.93;;
18188;SDS011;9219;50.396;8.546;2023-03-23T00:55:55;2.30;;;0.90;;
18188;SDS011;9219;50.396;8.546;2023-03-23T00:58:21;3.97;;;1.33;;
18188;SDS011;9219;50.396;8.546;2023-03-23T01:00:48;3.33;;;0.90;;
18188;SDS011;9219;50.396;8.546;2023-03-23T01:03:17;1.40;;;0.90;;
18188;SDS011;9219;50.396;8.546;2023-03-23T01:05:44;3.10;;;1.07;;
18188;SDS011;9219;50.396;8.546;2023-03-23T01:08:12;1.37;;;0.90;;
18188;SDS011;9219;50.396;8.546;2023-03-23T01:15:40;1.40;;;1.00;;
18188;SDS011;9219;50.396;8.546;2023-03-23T01:18:08;2.57;;;1.10;;
18188;SDS011;9219;50.396;8.546;2023-03-23T01:20:35;1.17;;;1.07;;
18188;SDS011;9219;50.396;8.546;2023-03-23T01:23:03;2.77;;;1.00;;
18188;SDS011;9219;50.396;8.546;2023-03-23T01:25:30;1.33;;;0.93;;
18188;SDS011;9219;50.396;8.546;2023-03-23T01:28:00;3.00;;;1.00;;
18188;SDS011;9219;50.396;8.546;2023-03-23T01:30:27;1.80;;;0.97;;
18188;SDS011;9219;50.396;8.546;2023-03-23T01:32:58;5.60;;;1.00;;
18188;SDS011;9219;50.396;8.546;2023-03-23T01:40:26;1.30;;;0.87;;
18188;SDS011;9219;50.396;8.546;2023-03-23T01:42:53;1.97;;;1.10;;
18188;SDS011;9219;50.396;8.546;2023-03-23T01:45:25;3.30;;;1.00;;
18188;SDS011;9219;50.396;8.546;2023-03-23T01:48:01;2.20;;;1.07;;
18188;SDS011;9219;50.396;8.546;2023-03-23T01:50:32;4.60;;;1.10;;
18188;SDS011;9219;50.396;8.546;2023-03-23T01:53:07;4.40;;;1.10;;
18188;SDS011;9219;50.396;8.546;2023-03-23T01:55:36;1.60;;;0.97;;
18188;SDS011;9219;50.396;8.546;2023-03-23T02:03:07;0.80;;;0.73;;
18188;SDS011;9219;50.396;8.546;2023-03-23T02:05:36;1.40;;;1.10;;
18188;SDS011;9219;50.396;8.546;2023-03-23T02:08:05;0.83;;;0.73;;
18188;SDS011;9219;50.396;8.546;2023-03-23T02:10:34;2.50;;;1.30;;
18188;SDS011;9219;50.396;8.546;2023-03-23T02:13:02;2.10;;;0.80;;
18188;SDS011;9219;50.396;8.546;2023-03-23T02:15:34;1.97;;;1.17;;
18188;SDS011;9219;50.396;8.546;2023-03-23T02:18:13;1.37;;;0.93;;
18188;SDS011;9219;50.396;8.546;2023-03-23T02:26:03;3.47;;;1.20;;
18188;SDS011;9219;50.396;8.546;2023-03-23T02:28:50;1.40;;;0.80;;
18188;SDS011;9219;50.396;8.546;2023-03-23T02:31:41;3.90;;;0.90;;
18188;SDS011;9219;50.396;8.546;2023-03-23T02:34:17;1.80;;;0.90;;
18188;SDS011;9219;50.396;8.546;2023-03-23T02:36:49;1.07;;;0.80;;
18188;SDS011;9219;50.396;8.546;2023-03-23T02:39:20;3.00;;;0.90;;
18188;SDS011;9219;50.396;8.546;2023-03-23T02:41:56;1.53;;;0.90;;
18188;SDS011;9219;50.396;8.546;2023-03-23T02:49:31;0.93;;;0.80;;
18188;SDS011;9219;50.396;8.546;2023-03-23T02:52:04;1.00;;;0.90;;
18188;SDS011;9219;50.396;8.546;2023-03-23T02:54:33;1.17;;;0.70;;
18188;SDS011;9219;50.396;8.546;2023-03-23T02:57:02;2.83;;;1.03;;
18188;SDS011;9219;50.396;8.546;2023-03-23T02:59:35;0.77;;;0.70;;
18188;SDS011;9219;50.396;8.546;2023-03-23T03:02:11;3.27;;;2.30;;
18188;SDS011;9219;50.396;8.546;2023-03-23T03:04:45;2.03;;;1.00;;
18188;SDS011;9219;50.396;8.546;2023-03-23T03:10:10;1.57;;;1.10;;
18188;SDS011;9219;50.396;8.546;2023-03-23T03:12:46;1.03;;;0.90;;
18188;SDS011;9219;50.396;8.546;2023-03-23T03:15:20;1.30;;;1.00;;
18188;SDS011;9219;50.396;8.546;2023-03-23T03:17:53;1.53;;;1.10;;
18188;SDS011;9219;50.396;8.546;2023-03-23T03:20:41;1.10;;;1.00;;
18188;SDS011;9219;50.396;8.546;2023-03-23T03:23:11;5.33;;;1.20;;
18188;SDS011;9219;50.396;8.546;2023-03-23T03:25:40;2.70;;;1.10;;
18188;SDS011;9219;50.396;8.546;2023-03-23T03:28:12;2.13;;;1.13;;
18188;SDS011;9219;50.396;8.546;2023-03-23T03:35:49;2.60;;;1.30;;
18188;SDS011;9219;50.396;8.546;2023-03-23T03:38:17;2.30;;;1.07;;
18188;SDS011;9219;50.396;8.546;2023-03-23T03:40:45;6.43;;;1.00;;
18188;SDS011;9219;50.396;8.546;2023-03-23T03:43:12;4.60;;;1.93;;
18188;SDS011;9219;50.396;8.546;2023-03-23T03:45:39;2.20;;;1.03;;
18188;SDS011;9219;50.396;8.546;2023-03-23T03:48:07;2.40;;;1.47;;
18188;SDS011;9219;50.396;8.546;2023-03-23T03:50:34;1.93;;;1.00;;
18188;SDS011;9219;50.396;8.546;2023-03-23T03:58:10;2.77;;;1.20;;
18188;SDS011;9219;50.396;8.546;2023-03-23T04:00:38;0.93;;;0.90;;
18188;SDS011;9219;50.396;8.546;2023-03-23T04:03:06;3.20;;;1.10;;
18188;SDS011;9219;50.396;8.546;2023-03-23T04:05:34;9.50;;;1.70;;
18188;SDS011;9219;50.396;8.546;2023-03-23T04:08:02;3.57;;;1.33;;
18188;SDS011;9219;50.396;8.546;2023-03-23T04:10:30;2.37;;;1.20;;
18188;SDS011;9219;50.396;8.546;2023-03-23T04:12:57;2.50;;;1.27;;
18188;SDS011;9219;50.396;8.546;2023-03-23T04:19:53;3.17;;;1.07;;
18188;SDS011;9219;50.396;8.546;2023-03-23T04:22:22;1.20;;;1.03;;
18188;SDS011;9219;50.396;8.546;2023-03-23T04:24:55;1.40;;;1.20;;
18188;SDS011;9219;50.396;8.546;2023-03-23T04:27:26;1.20;;;1.10;;
18188;SDS011;9219;50.396;8.546;2023-03-23T04:29:53;4.23;;;1.40;;
18188;SDS011;9219;50.396;8.546;2023-03-23T04:32:23;1.97;;;1.23;;
18188;SDS011;9219;50.396;8.546;2023-03-23T04:34:56;2.30;;;1.30;;
18188;SDS011;9219;50.396;8.546;2023-03-23T04:44:20;1.63;;;1.20;;
18188;SDS011;9219;50.396;8.546;2023-03-23T04:46:46;1.33;;;1.10;;
18188;SDS011;9219;50.396;8.546;2023-03-23T04:49:15;3.73;;;1.40;;
18188;SDS011;9219;50.396;8.546;2023-03-23T04:51:46;1.80;;;1.10;;
18188;SDS011;9219;50.396;8.546;2023-03-23T04:54:15;2.47;;;1.30;;
18188;SDS011;9219;50.396;8.546;2023-03-23T04:56:48;2.80;;;1.60;;
18188;SDS011;9219;50.396;8.546;2023-03-23T04:59:17;3.23;;;1.23;;
18188;SDS011;9219;50.396;8.546;2023-03-23T05:07:35;2.60;;;1.27;;
18188;SDS011;9219;50.396;8.546;2023-03-23T05:10:02;1.40;;;1.20;;
18188;SDS011;9219;50.396;8.546;2023-03-23T05:12:33;2.73;;;1.17;;
18188;SDS011;9219;50.396;8.546;2023-03-23T05:15:04;3.07;;;1.20;;
18188;SDS011;9219;50.396;8.546;2023-03-23T05:17:32;1.73;;;1.40;;
18188;SDS011;9219;50.396;8.546;2023-03-23T05:19:59;3.17;;;1.43;;
18188;SDS011;9219;50.396;8.546;2023-03-23T05:22:28;1.67;;;1.40;;
18188;SDS011;9219;50.396;8.546;2023-03-23T05:29:17;1.73;;;1.07;;
18188;SDS011;9219;50.396;8.546;2023-03-23T05:31:54;3.27;;;1.40;;
18188;SDS011;9219;50.396;8.546;2023-03-23T05:34:25;2.13;;;1.30;;
18188;SDS011;9219;50.396;8.546;2023-03-23T05:36:52;5.53;;;1.30;;
18188;SDS011;9219;50.396;8.546;2023-03-23T05:39:20;1.73;;;1.30;;
18188;SDS011;9219;50.396;8.546;2023-03-23T05:41:47;3.00;;;0.90;;
18188;SDS011;9219;50.396;8.546;2023-03-23T05:44:14;2.17;;;1.47;;
18188;SDS011;9219;50.396;8.546;2023-03-23T05:49:36;1.47;;;1.33;;
18188;SDS011;9219;50.396;8.546;2023-03-23T05:52:03;2.27;;;1.40;;
18188;SDS011;9219;50.396;8.546;2023-03-23T05:54:32;2.37;;;1.57;;
18188;SDS011;9219;50.396;8.546;2023-03-23T05:57:00;1.30;;;1.03;;
18188;SDS011;9219;50.396;8.546;2023-03-23T05:59:26;1.87;;;1.23;;
18188;SDS011;9219;50.396;8.546;2023-03-23T06:01:53;3.17;;;1.57;;
18188;SDS011;9219;50.396;8.546;2023-03-23T06:04:23;1.60;;;1.40;;
18188;SDS011;9219;50.396;8.546;2023-03-23T06:12:12;1.27;;;1.10;;
18188;SDS011;9219;50.396;8.546;2023-03-23T06:14:40;1.63;;;1.30;;
18188;SDS011;9219;50.396;8.546;2023-03-23T06:17:10;2.70;;;1.20;;
18188;SDS011;9219;50.396;8.546;2023-03-23T06:19:37;2.43;;;1.37;;
18188;SDS011;9219;50.396;8.546;2023-03-23T06:22:04;2.60;;;1.23;;
18188;SDS011;9219;50.396;8.546;2023-03-23T06:24:37;1.83;;;1.23;;
18188;SDS011;9219;50.396;8.546;2023-03-23T06:27:04;1.67;;;1.00;;
18188;SDS011;9219;50.396;8.546;2023-03-23T06:32:24;3.67;;;1.07;;
18188;SDS011;9219;50.396;8.546;2023-03-23T06:34:54;2.03;;;1.50;;
18188;SDS011;9219;50.396;8.546;2023-03-23T06:37:22;1.80;;;1.60;;
18188;SDS011;9219;50.396;8.546;2023-03-23T06:39:55;2.27;;;1.27;;
18188;SDS011;9219;50.396;8.546;2023-03-23T06:42:24;2.17;;;1.27;;
18188;SDS011;9219;50.396;8.546;2023-03-23T06:44:53;3.50;;;1.80;;
18188;SDS011;9219;50.396;8.546;2023-03-23T06:47:26;2.40;;;1.23;;
18188;SDS011;9219;50.396;8.546;2023-03-23T06:54:32;1.47;;;1.20;;
18188;SDS011;9219;50.396;8.546;2023-03-23T06:57:04;3.47;;;1.33;;
18188;SDS011;9219;50.396;8.546;2023-03-23T06:59:32;4.77;;;1.10;;
18188;SDS011;9219;50.396;8.546;2023-03-23T07:02:02;1.77;;;1.10;;
18188;SDS011;9219;50.396;8.546;2023-03-23T07:04:29;1.27;;;1.13;;
18188;SDS011;9219;50.396;8.546;2023-03-23T07:07:03;2.20;;;1.60;;
18188;SDS011;9219;50.396;8.546;2023-03-23T07:09:31;1.37;;;1.10;;
18188;SDS011;9219;50.396;8.546;2023-03-23T07:12:03;2.33;;;1.57;;
18188;SDS011;9219;50.396;8.546;2023-03-23T07:19:35;1.30;;;1.20;;
18188;SDS011;9219;50.396;8.546;2023-03-23T07:22:03;3.10;;;1.47;;
18188;SDS011;9219;50.396;8.546;2023-03-23T07:24:31;1.80;;;0.90;;
18188;SDS011;9219;50.396;8.546;2023-03-23T07:26:58;1.57;;;1.00;;
18188;SDS011;9219;50.396;8.546;2023-03-23T07:29:25;1.63;;;1.10;;
18188;SDS011;9219;50.396;8.546;2023-03-23T07:31:53;1.33;;;1.00;;
18188;SDS011;9219;50.396;8.546;2023-03-23T07:34:20;2.17;;;1.60;;
18188;SDS011;9219;50.396;8.546;2023-03-23T07:41:18;1.27;;;1.00;;
18188;SDS011;9219;50.396;8.546;2023-03-23T07:43:45;4.47;;;1.30;;
18188;SDS011;9219;50.396;8.546;2023-03-23T07:46:13;2.40;;;1.00;;
18188;SDS011;9219;50.396;8.546;2023-03-23T07:48:39;1.83;;;1.40;;
18188;SDS011;9219;50.396;8.546;2023-03-23T07:51:06;2.97;;;1.30;;
18188;SDS011;9219;50.396;8.546;2023-03-23T07:53:33;1.47;;;0.90;;
18188;SDS011;9219;50.396;8.546;2023-03-23T07:56:00;2.53;;;1.30;;
18188;SDS011;9219;50.396;8.546;2023-03-23T07:58:29;2.03;;;1.30;;
18188;SDS011;9219;50.396;8.546;2023-03-23T08:06:04;2.20;;;1.20;;
18188;SDS011;9219;50.396;8.546;2023-03-23T08:08:31;2.73;;;1.37;;
18188;SDS011;9219;50.396;8.546;2023-03-23T08:10:58;3.47;;;1.10;;
18188;SDS011;9219;50.396;8.546;2023-03-23T08:13:26;1.33;;;1.00;;
18188;SDS011;9219;50.396;8.546;2023-03-23T08:16:34;4.13;;;1.17;;
18188;SDS011;9219;50.396;8.546;2023-03-23T08:19:01;2.07;;;1.20;;
18188;SDS011;9219;50.396;8.546;2023-03-23T08:21:43;4.10;;;1.63;;
18188;SDS011;9219;50.396;8.546;2023-03-23T08:24:10;4.17;;;0.90;;
18188;SDS011;9219;50.396;8.546;2023-03-23T08:31:52;4.03;;;1.20;;
18188;SDS011;9219;50.396;8.546;2023-03-23T08:34:19;2.27;;;1.10;;
18188;SDS011;9219;50.396;8.546;2023-03-23T08:36:46;1.80;;;1.30;;
18188;SDS011;9219;50.396;8.546;2023-03-23T08:39:13;2.97;;;1.13;;
18188;SDS011;9219;50.396;8.546;2023-03-23T08:41:41;1.47;;;1.30;;
18188;SDS011;9219;50.396;8.546;2023-03-23T08:44:31;1.40;;;1.20;;
18188;SDS011;9219;50.396;8.546;2023-03-23T08:46:59;1.37;;;0.83;;
18188;SDS011;9219;50.396;8.546;2023-03-23T08:49:37;4.07;;;1.47;;
18188;SDS011;9219;50.396;8.546;2023-03-23T08:57:28;2.70;;;1.10;;
18188;SDS011;9219;50.396;8.546;2023-03-23T08:59:58;2.27;;;1.40;;
18188;SDS011;9219;50.396;8.546;2023-03-23T09:02:43;1.83;;;1.20;;
18188;SDS011;9219;50.396;8.546;2023-03-23T09:05:10;1.77;;;1.57;;
18188;SDS011;9219;50.396;8.546;2023-03-23T09:07:44;1.93;;;1.40;;
18188;SDS011;9219;50.396;8.546;2023-03-23T09:10:11;4.13;;;1.90;;
18188;SDS011;9219;50.396;8.546;2023-03-23T09:12:43;3.50;;;1.50;;
18188;SDS011;9219;50.396;8.546;2023-03-23T09:20:21;4.47;;;2.03;;
18188;SDS011;9219;50.396;8.546;2023-03-23T09:22:53;1.70;;;1.47;;
18188;SDS011;9219;50.396;8.546;2023-03-23T09:25:22;1.60;;;1.33;;
18188;SDS011;9219;50.396;8.546;2023-03-23T09:27:52;1.80;;;1.40;;
18188;SDS011;9219;50.396;8.546;2023-03-23T09:30:22;1.80;;;1.57;;
18188;SDS011;9219;50.396;8.546;2023-03-23T09:32:51;3.53;;;1.30;;
18188;SDS011;9219;50.396;8.546;2023-03-23T09:35:21;5.90;;;1.47;;
18188;SDS011;9219;50.396;8.546;2023-03-23T09:45:48;1.70;;;1.30;;
18188;SDS011;9219;50.396;8.546;2023-03-23T09:48:38;2.87;;;1.50;;
18188;SDS011;9219;50.396;8.546;2023-03-23T09:51:15;3.87;;;1.40;;
18188;SDS011;9219;50.396;8.546;2023-03-23T09:53:55;1.50;;;1.40;;
18188;SDS011;9219;50.396;8.546;2023-03-23T09:56:33;4.00;;;1.77;;
18188;SDS011;9219;50.396;8.546;2023-03-23T09:59:10;1.50;;;1.40;;
18188;SDS011;9219;50.396;8.546;2023-03-23T10:06:52;2.17;;;1.67;;
18188;SDS011;9219;50.396;8.546;2023-03-23T10:09:40;1.60;;;1.10;;
18188;SDS011;9219;50.396;8.546;2023-03-23T10:12:10;1.87;;;1.40;;
18188;SDS011;9219;50.396;8.546;2023-03-23T10:14:50;1.33;;;1.20;;
18188;SDS011;9219;50.396;8.546;2023-03-23T10:17:26;1.60;;;0.93;;
18188;SDS011;9219;50.396;8.546;2023-03-23T10:19:57;1.63;;;1.10;;
18188;SDS011;9219;50.396;8.546;2023-03-23T10:22:44;1.30;;;1.00;;
18188;SDS011;9219;50.396;8.546;2023-03-23T10:25:34;1.27;;;1.00;;
18188;SDS011;9219;50.396;8.546;2023-03-23T10:28:04;1.40;;;1.10;;
18188;SDS011;9219;50.396;8.546;2023-03-23T10:36:51;1.50;;;0.90;;
18188;SDS011;9219;50.396;8.546;2023-03-23T10:39:29;1.90;;;0.60;;
18188;SDS011;9219;50.396;8.546;2023-03-23T10:42:04;1.50;;;0.80;;
18188;SDS011;9219;50.396;8.546;2023-03-23T10:44:40;0.97;;;0.70;;
18188;SDS011;9219;50.396;8.546;2023-03-23T10:47:10;0.50;;;0.50;;
18188;SDS011;9219;50.396;8.546;2023-03-23T10:49:41;1.07;;;0.80;;
18188;SDS011;9219;50.396;8.546;2023-03-23T10:52:22;1.13;;;0.60;;
18188;SDS011;9219;50.396;8.546;2023-03-23T11:02:14;4.10;;;0.90;;
18188;SDS011;9219;50.396;8.546;2023-03-23T11:04:53;1.23;;;0.80;;
18188;SDS011;9219;50.396;8.546;2023-03-23T11:07:35;1.20;;;0.77;;
18188;SDS011;9219;50.396;8.546;2023-03-23T11:10:06;2.00;;;0.90;;
18188;SDS011;9219;50.396;8.546;2023-03-23T11:12:43;1.30;;;0.80;;
18188;SDS011;9219;50.396;8.546;2023-03-23T11:15:27;0.80;;;0.67;;
18188;SDS011;9219;50.396;8.546;2023-03-23T11:18:01;0.93;;;0.60;;
18188;SDS011;9219;50.396;8.546;2023-03-23T11:20:33;0.83;;;0.77;;
18188;SDS011;9219;50.396;8.546;2023-03-23T11:23:17;1.33;;;0.97;;
18188;SDS011;9219;50.396;8.546;2023-03-23T11:31:21;1.07;;;0.83;;
18188;SDS011;9219;50.396;8.546;2023-03-23T11:33:51;1.80;;;0.80;;
18188;SDS011;9219;50.396;8.546;2023-03-23T11:36:20;1.70;;;0.80;;
18188;SDS011;9219;50.396;8.546;2023-03-23T11:38:59;1.03;;;0.60;;
18188;SDS011;9219;50.396;8.546;2023-03-23T11:41:32;2.80;;;0.50;;
18188;SDS011;9219;50.396;8.546;2023-03-23T11:44:03;0.70;;;0.70;;
18188;SDS011;9219;50.396;8.546;2023-03-23T11:46:39;1.17;;;0.80;;
18188;SDS011;9219;50.396;8.546;2023-03-23T11:49:20;1.53;;;0.60;;
18188;SDS011;9219;50.396;8.546;2023-03-23T11:57:05;1.60;;;1.00;;
18188;SDS011;9219;50.396;8.546;2023-03-23T11:59:38;2.70;;;0.53;;
18188;SDS011;9219;50.396;8.546;2023-03-23T12:02:12;2.20;;;0.50;;
18188;SDS011;9219;50.396;8.546;2023-03-23T12:05:06;0.60;;;0.50;;
18188;SDS011;9219;50.396;8.546;2023-03-23T12:07:58;1.50;;;0.50;;
18188;SDS011;9219;50.396;8.546;2023-03-23T12:10:38;0.57;;;0.50;;
18188;SDS011;9219;50.396;8.546;2023-03-23T12:15:56;0.93;;;0.80;;
18188;SDS011;9219;50.396;8.546;2023-03-23T12:18:33;1.13;;;0.50;;
18188;SDS011;9219;50.396;8.546;2023-03-23T12:21:11;1.07;;;0.77;;
18188;SDS011;9219;50.396;8.546;2023-03-23T12:23:46;0.50;;;0.50;;
18188;SDS011;9219;50.396;8.546;2023-03-23T12:26:20;0.93;;;0.53;;
18188;SDS011;9219;50.396;8.546;2023-03-23T12:29:13;0.60;;;0.50;;
18188;SDS011;9219;50.396;8.546;2023-03-23T12:32:25;1.77;;;0.70;;
18188;SDS011;9219;50.396;8.546;2023-03-23T12:43:33;1.37;;;0.87;;
18188;SDS011;9219;50.396;8.546;2023-03-23T12:46:14;0.80;;;0.73;;
18188;SDS011;9219;50.396;8.546;2023-03-23T12:48:49;2.40;;;0.90;;
18188;SDS011;9219;50.396;8.546;2023-03-23T12:51:21;1.87;;;0.70;;
18188;SDS011;9219;50.396;8.546;2023-03-23T12:53:58;0.83;;;0.83;;
18188;SDS011;9219;50.396;8.546;2023-03-23T12:56:32;0.70;;;0.63;;
18188;SDS011;9219;50.396;8.546;2023-03-23T13:03:36;0.50;;;0.50;;
18188;SDS011;9219;50.396;8.546;2023-03-23T13:06:09;0.77;;;0.77;;
18188;SDS011;9219;50.396;8.546;2023-03-23T13:08:46;0.70;;;0.70;;
18188;SDS011;9219;50.396;8.546;2023-03-23T13:11:18;3.20;;;0.83;;
18188;SDS011;9219;50.396;8.546;2023-03-23T13:13:49;2.63;;;0.73;;
18188;SDS011;9219;50.396;8.546;2023-03-23T13:16:25;0.47;;;0.47;;
18188;SDS011;9219;50.396;8.546;2023-03-23T13:19:03;0.80;;;0.60;;
18188;SDS011;9219;50.396;8.546;2023-03-23T13:26:37;1.87;;;0.73;;
18188;SDS011;9219;50.396;8.546;2023-03-23T13:29:11;0.57;;;0.57;;
18188;SDS011;9219;50.396;8.546;2023-03-23T13:31:43;0.87;;;0.60;;
18188;SDS011;9219;50.396;8.546;2023-03-23T13:34:15;1.20;;;0.87;;
18188;SDS011;9219;50.396;8.546;2023-03-23T13:36:52;1.10;;;0.70;;
18188;SDS011;9219;50.396;8.546;2023-03-23T13:39:21;1.40;;;0.73;;
18188;SDS011;9219;50.396;8.546;2023-03-23T13:42:01;2.70;;;0.60;;
18188;SDS011;9219;50.396;8.546;2023-03-23T13:47:36;0.70;;;0.47;;
18188;SDS011;9219;50.396;8.546;2023-03-23T13:50:09;0.50;;;0.50;;
18188;SDS011;9219;50.396;8.546;2023-03-23T13:52:46;1.33;;;0.87;;
18188;SDS011;9219;50.396;8.546;2023-03-23T13:55:19;0.80;;;0.80;;
18188;SDS011;9219;50.396;8.546;2023-03-23T13:57:55;1.80;;;0.80;;
18188;SDS011;9219;50.396;8.546;2023-03-23T14:00:33;2.10;;;0.80;;
18188;SDS011;9219;50.396;8.546;2023-03-23T14:03:16;0.53;;;0.53;;
18188;SDS011;9219;50.396;8.546;2023-03-23T14:06:04;0.83;;;0.60;;
18188;SDS011;9219;50.396;8.546;2023-03-23T14:08:38;4.83;;;0.70;;
18188;SDS011;9219;50.396;8.546;2023-03-23T14:11:11;0.90;;;0.70;;
18188;SDS011;9219;50.396;8.546;2023-03-23T14:13:44;2.23;;;0.60;;
18188;SDS011;9219;50.396;8.546;2023-03-23T14:16:14;0.70;;;0.40;;
18188;SDS011;9219;50.396;8.546;2023-03-23T14:18:49;0.70;;;0.60;;
18188;SDS011;9219;50.396;8.546;2023-03-23T14:21:31;0.70;;;0.70;;
18188;SDS011;9219;50.396;8.546;2023-03-23T14:28:40;1.07;;;0.63;;
18188;SDS011;9219;50.396;8.546;2023-03-23T14:31:14;1.03;;;0.80;;
18188;SDS011;9219;50.396;8.546;2023-03-23T14:33:45;0.60;;;0.60;;
18188;SDS011;9219;50.396;8.546;2023-03-23T14:36:19;0.40;;;0.40;;
18188;SDS011;9219;50.396;8.546;2023-03-23T14:38:56;0.67;;;0.67;;
18188;SDS011;9219;50.396;8.546;2023-03-23T14:41:29;0.57;;;0.57;;
18188;SDS011;9219;50.396;8.546;2023-03-23T14:44:01;0.60;;;0.60;;
18188;SDS011;9219;50.396;8.546;2023-03-23T14:51:35;2.63;;;0.87;;
18188;SDS011;9219;50.396;8.546;2023-03-23T14:54:07;4.30;;;0.80;;
18188;SDS011;9219;50.396;8.546;2023-03-23T14:56:38;0.50;;;0.50;;
18188;SDS011;9219;50.396;8.546;2023-03-23T14:59:09;0.80;;;0.50;;
18188;SDS011;9219;50.396;8.546;2023-03-23T15:01:39;0.90;;;0.73;;
18188;SDS011;9219;50.396;8.546;2023-03-23T15:04:09;1.37;;;0.83;;
18188;SDS011;9219;50.396;8.546;2023-03-23T15:06:47;1.50;;;0.90;;
18188;SDS011;9219;50.396;8.546;2023-03-23T15:14:19;1.40;;;1.10;;
18188;SDS011;9219;50.396;8.546;2023-03-23T15:16:48;1.30;;;0.50;;
18188;SDS011;9219;50.396;8.546;2023-03-23T15:19:19;1.13;;;0.73;;
18188;SDS011;9219;50.396;8.546;2023-03-23T15:21:50;0.70;;;0.50;;
18188;SDS011;9219;50.396;8.546;2023-03-23T15:24:40;1.57;;;0.90;;
18188;SDS011;9219;50.396;8.546;2023-03-23T15:27:12;1.10;;;0.90;;
18188;SDS011;9219;50.396;8.546;2023-03-23T15:29:49;1.13;;;0.63;;
18188;SDS011;9219;50.396;8.546;2023-03-23T15:36:46;1.50;;;0.77;;
18188;SDS011;9219;50.396;8.546;2023-03-23T15:39:22;0.90;;;0.73;;
18188;SDS011;9219;50.396;8.546;2023-03-23T15:41:50;1.73;;;1.00;;
18188;SDS011;9219;50.396;8.546;2023-03-23T15:47:15;1.40;;;0.83;;
18188;SDS011;9219;50.396;8.546;2023-03-23T15:49:46;2.30;;;0.90;;
18188;SDS011;9219;50.396;8.546;2023-03-23T15:52:25;1.47;;;0.90;;
18188;SDS011;9219;50.396;8.546;2023-03-23T16:00:00;1.57;;;0.90;;
18188;SDS011;9219;50.396;8.546;2023-03-23T16:02:28;0.90;;;0.80;;
18188;SDS011;9219;50.396;8.546;2023-03-23T16:04:56;2.10;;;1.03;;
18188;SDS011;9219;50.396;8.546;2023-03-23T16:07:25;1.87;;;1.17;;
18188;SDS011;9219;50.396;8.546;2023-03-23T16:09:54;1.17;;;0.77;;
18188;SDS011;9219;50.396;8.546;2023-03-23T16:12:21;0.93;;;0.80;;
18188;SDS011;9219;50.396;8.546;2023-03-23T16:14:49;2.50;;;1.30;;
18188;SDS011;9219;50.396;8.546;2023-03-23T16:22:21;2.60;;;0.93;;
18188;SDS011;9219;50.396;8.546;2023-03-23T16:24:51;3.20;;;1.03;;
18188;SDS011;9219;50.396;8.546;2023-03-23T16:27:24;1.73;;;0.80;;
18188;SDS011;9219;50.396;8.546;2023-03-23T16:29:54;2.30;;;1.10;;
18188;SDS011;9219;50.396;8.546;2023-03-23T16:32:31;2.70;;;0.83;;
18188;SDS011;9219;50.396;8.546;2023-03-23T16:35:01;1.90;;;0.97;;
18188;SDS011;9219;50.396;8.546;2023-03-23T16:40:12;1.20;;;1.00;;
18188;SDS011;9219;50.396;8.546;2023-03-23T16:42:43;7.07;;;1.30;;
18188;SDS011;9219;50.396;8.546;2023-03-23T16:45:13;2.97;;;1.03;;
18188;SDS011;9219;50.396;8.546;2023-03-23T16:47:46;2.80;;;1.40;;
18188;SDS011;9219;50.396;8.546;2023-03-23T16:50:15;1.50;;;1.40;;
18188;SDS011;9219;50.396;8.546;2023-03-23T16:52:47;2.73;;;1.07;;
18188;SDS011;9219;50.396;8.546;2023-03-23T16:55:19;3.20;;;0.97;;
18188;SDS011;9219;50.396;8.546;2023-03-23T17:02:50;1.60;;;1.07;;
18188;SDS011;9219;50.396;8.546;2023-03-23T17:05:19;1.90;;;1.20;;
18188;SDS011;9219;50.396;8.546;2023-03-23T17:07:50;2.20;;;1.30;;
18188;SDS011;9219;50.396;8.546;2023-03-23T17:10:20;1.27;;;1.13;;
18188;SDS011;9219;50.396;8.546;2023-03-23T17:12:51;2.97;;;1.10;;
18188;SDS011;9219;50.396;8.546;2023-03-23T17:15:22;1.30;;;1.20;;
18188;SDS011;9219;50.396;8.546;2023-03-23T17:17:55;4.43;;;1.40;;
18188;SDS011;9219;50.396;8.546;2023-03-23T17:25:25;2.27;;;1.30;;
18188;SDS011;9219;50.396;8.546;2023-03-23T17:27:56;0.93;;;0.93;;
18188;SDS011;9219;50.396;8.546;2023-03-23T17:30:32;3.90;;;1.20;;
18188;SDS011;9219;50.396;8.546;2023-03-23T17:33:00;2.23;;;1.50;;
18188;SDS011;9219;50.396;8.546;2023-03-23T17:38:26;2.13;;;1.20;;
18188;SDS011;9219;50.396;8.546;2023-03-23T17:47:06;3.50;;;1.47;;
18188;SDS011;9219;50.396;8.546;2023-03-23T17:49:33;1.57;;;1.17;;
18188;SDS011;9219;50.396;8.546;2023-03-23T17:52:00;3.40;;;2.00;;
18188;SDS011;9219;50.396;8.546;2023-03-23T17:54:28;2.30;;;1.37;;
18188;SDS011;9219;50.396;8.546;2023-03-23T17:56:56;2.93;;;1.30;;
18188;SDS011;9219;50.396;8.546;2023-03-23T17:59:25;6.70;;;1.30;;
18188;SDS011;9219;50.396;8.546;2023-03-23T18:01:54;3.07;;;1.80;;
18188;SDS011;9219;50.396;8.546;2023-03-23T18:08:49;3.53;;;1.70;;
18188;SDS011;9219;50.396;8.546;2023-03-23T18:11:16;2.77;;;1.40;;
18188;SDS011;9219;50.396;8.546;2023-03-23T18:13:44;1.63;;;1.30;;
18188;SDS011;9219;50.396;8.546;2023-03-23T18:16:13;2.67;;;1.80;;
18188;SDS011;9219;50.396;8.546;2023-03-23T18:18:40;4.33;;;1.27;;
18188;SDS011;9219;50.396;8.546;2023-03-23T18:21:11;2.30;;;1.60;;
18188;SDS011;9219;50.396;8.546;2023-03-23T18:23:40;2.47;;;1.47;;
18188;SDS011;9219;50.396;8.546;2023-03-23T18:29:00;5.20;;;1.70;;
18188;SDS011;9219;50.396;8.546;2023-03-23T18:31:28;1.63;;;1.23;;
18188;SDS011;9219;50.396;8.546;2023-03-23T18:34:00;1.30;;;1.07;;
18188;SDS011;9219;50.396;8.546;2023-03-23T18:36:38;4.37;;;1.40;;
18188;SDS011;9219;50.396;8.546;2023-03-23T18:39:06;4.13;;;1.97;;
18188;SDS011;9219;50.396;8.546;2023-03-23T18:41:37;2.17;;;1.73;;
18188;SDS011;9219;50.396;8.546;2023-03-23T18:44:08;2.07;;;1.50;;
18188;SDS011;9219;50.396;8.546;2023-03-23T18:51:27;3.17;;;1.80;;
18188;SDS011;9219;50.396;8.546;2023-03-23T18:53:55;1.80;;;1.60;;
18188;SDS011;9219;50.396;8.546;2023-03-23T18:56:24;4.80;;;2.67;;
18188;SDS011;9219;50.396;8.546;2023-03-23T18:58:52;4.13;;;1.70;;
18188;SDS011;9219;50.396;8.546;2023-03-23T19:01:21;4.23;;;2.80;;
18188;SDS011;9219;50.396;8.546;2023-03-23T19:03:51;1.90;;;1.50;;
18188;SDS011;9219;50.396;8.546;2023-03-23T19:06:23;2.07;;;1.47;;
18188;SDS011;9219;50.396;8.546;2023-03-23T19:13:27;2.80;;;1.43;;
18188;SDS011;9219;50.396;8.546;2023-03-23T19:15:55;4.10;;;2.00;;
18188;SDS011;9219;50.396;8.546;2023-03-23T19:18:24;3.57;;;1.53;;
18188;SDS011;9219;50.396;8.546;2023-03-23T19:20:54;2.03;;;1.40;;
18188;SDS011;9219;50.396;8.546;2023-03-23T19:23:28;4.43;;;1.77;;
18188;SDS011;9219;50.396;8.546;2023-03-23T19:25:59;6.00;;;1.83;;
18188;SDS011;9219;50.396;8.546;2023-03-23T19:28:30;2.00;;;1.37;;
18188;SDS011;9219;50.396;8.546;2023-03-23T19:35:37;3.70;;;2.23;;
18188;SDS011;9219;50.396;8.546;2023-03-23T19:38:05;5.77;;;1.93;;
18188;SDS011;9219;50.396;8.546;2023-03-23T19:40:35;4.63;;;2.00;;
18188;SDS011;9219;50.396;8.546;2023-03-23T19:43:08;4.43;;;1.53;;
18188;SDS011;9219;50.396;8.546;2023-03-23T19:45:39;2.30;;;1.50;;